Time;durP1;ratioP1;P1;durP2;ratioP2;P2;SDS_P1;SDS_P2;PMS_P1;PMS_P2;Temp;Humidity;BMP_temperature;BMP_pressure;BME280_temperature;BME280_humidity;BME280_pressure;Samples;Min_cycle;Max_cycle;Signal;HPM_P1;HPM_P2
2023/12/20 00:00:55;;;;;;;13.10;6.75;;;6.70;1.00;;;;;;5116575;27;20100;-49
2023/12/20 00:03:20;;;;;;;14.63;7.63;;;6.70;1.00;;;;;;5112285;27;20024;-49
2023/12/20 00:05:46;;;;;;;21.55;7.75;;;6.80;1.00;;;;;;5107574;27;20035;-50
2023/12/20 00:08:12;;;;;;;16.77;7.40;;;6.80;1.00;;;;;;5111091;27;20035;-49
2023/12/20 00:10:38;;;;;;;14.75;7.30;;;6.80;1.00;;;;;;5110754;27;20036;-51
2023/12/20 00:13:03;;;;;;;14.50;8.15;;;6.80;1.00;;;;;;5092716;27;20027;-53
2023/12/20 00:15:29;;;;;;;14.07;6.95;;;6.80;1.00;;;;;;5110420;27;20056;-55
2023/12/20 00:17:55;;;;;;;20.50;8.30;;;6.70;1.00;;;;;;5108840;28;20034;-58
2023/12/20 00:20:20;;;;;;;17.05;8.18;;;6.80;1.00;;;;;;5107666;28;20497;-55
2023/12/20 00:22:46;;;;;;;14.38;7.25;;;6.80;1.00;;;;;;5107742;28;20035;-51
2023/12/20 00:25:12;;;;;;;13.48;7.18;;;6.80;1.00;;;;;;5107633;28;20034;-47
2023/12/20 00:27:37;;;;;;;18.58;8.48;;;6.70;1.00;;;;;;5108707;28;20024;-58
2023/12/20 00:30:03;;;;;;;17.05;7.50;;;6.70;1.00;;;;;;5084754;28;20147;-52
2023/12/20 00:32:29;;;;;;;15.85;7.78;;;6.70;1.00;;;;;;5086556;28;20035;-53
2023/12/20 00:34:55;;;;;;;16.80;8.38;;;6.80;1.00;;;;;;5087246;28;20047;-60
2023/12/20 00:37:21;;;;;;;17.42;8.93;;;6.90;1.00;;;;;;5085824;28;20035;-53
2023/12/20 00:39:46;;;;;;;10.90;6.18;;;6.90;1.00;;;;;;5087427;28;20031;-56
2023/12/20 14:58:05;;;;;;;90.80;46.67;;;4.00;99.90;;;;;;5083215;28;20534;-47
2023/12/20 15:00:31;;;;;;;92.18;44.75;;;3.90;99.90;;;;;;5082656;28;20063;-47
2023/12/20 15:02:57;;;;;;;78.30;41.85;;;3.90;99.90;;;;;;5081605;28;20704;-51
2023/12/20 15:05:22;;;;;;;73.00;39.30;;;3.90;99.90;;;;;;5082202;28;20073;-50
2023/12/20 15:07:48;;;;;;;71.65;38.90;;;3.90;99.90;;;;;;5082032;28;20024;-56
2023/12/20 15:10:14;;;;;;;71.95;36.85;;;3.90;99.90;;;;;;5081399;28;20032;-50
2023/12/20 15:12:40;;;;;;;65.13;36.90;;;3.90;99.90;;;;;;5081048;28;20040;-48
2023/12/20 15:15:06;;;;;;;65.15;35.40;;;3.90;99.90;;;;;;5081011;28;20028;-49
2023/12/20 15:17:33;;;;;;;63.78;33.58;;;3.90;99.90;;;;;;5080887;28;20040;-51
2023/12/20 15:19:58;;;;;;;63.97;32.60;;;3.90;99.90;;;;;;5080481;28;20036;-50
2023/12/20 15:22:26;;;;;;;47.28;27.52;;;4.00;99.90;;;;;;5081924;28;20022;-53
2023/12/20 15:24:53;;;;;;;51.17;29.75;;;4.00;99.90;;;;;;5082275;28;20039;-53
2023/12/20 15:27:19;;;;;;;55.63;28.85;;;4.00;99.90;;;;;;5082837;28;20086;-51
2023/12/20 15:29:44;;;;;;;68.28;35.42;;;3.90;99.90;;;;;;5082998;28;20028;-52
2023/12/20 15:32:10;;;;;;;56.42;31.27;;;3.90;99.90;;;;;;5082873;28;20107;-53
2023/12/20 15:34:36;;;;;;;59.85;31.42;;;4.00;99.90;;;;;;5082606;28;20036;-50
2023/12/20 15:37:01;;;;;;;71.00;35.13;;;4.00;99.90;;;;;;5081684;28;20372;-52
2023/12/20 15:39:27;;;;;;;61.95;35.28;;;3.90;99.90;;;;;;5082615;28;20062;-46
2023/12/20 15:41:53;;;;;;;66.80;35.17;;;3.90;99.90;;;;;;5081819;28;20459;-52
2023/12/20 15:44:18;;;;;;;57.92;31.88;;;3.90;99.90;;;;;;5082210;28;20376;-47
2023/12/20 15:46:44;;;;;;;60.40;31.15;;;3.90;99.90;;;;;;5082217;28;20464;-53
2023/12/20 15:49:14;;;;;;;62.10;31.88;;;3.90;99.90;;;;;;5081723;28;20044;-49
2023/12/20 15:51:40;;;;;;;61.50;31.58;;;3.90;99.90;;;;;;5080094;28;20032;-50
2023/12/20 15:54:08;;;;;;;54.92;30.17;;;3.90;99.90;;;;;;5080750;28;20042;-53
2023/12/20 15:56:34;;;;;;;58.45;30.00;;;3.90;99.90;;;;;;5080646;28;20137;-50
2023/12/20 15:59:00;;;;;;;60.10;32.55;;;3.90;99.90;;;;;;5081137;28;20081;-50
2023/12/20 16:01:26;;;;;;;55.08;30.20;;;3.90;99.90;;;;;;5080454;28;20028;-50
2023/12/20 16:03:51;;;;;;;65.57;32.42;;;3.90;99.90;;;;;;5079846;28;20483;-48
2023/12/20 16:06:17;;;;;;;57.85;30.23;;;3.90;99.90;;;;;;5080947;28;20097;-56
2023/12/20 16:08:43;;;;;;;57.10;30.55;;;3.90;99.90;;;;;;5071423;28;20067;-53
2023/12/20 16:11:09;;;;;;;54.42;30.40;;;3.90;99.90;;;;;;5066886;28;20029;-54
2023/12/20 16:13:34;;;;;;;54.08;27.23;;;3.90;99.90;;;;;;5067773;28;20017;-52
2023/12/20 16:16:04;;;;;;;54.00;29.40;;;4.00;99.90;;;;;;5066619;28;20032;-49
2023/12/20 16:18:30;;;;;;;46.75;26.77;;;4.00;99.90;;;;;;5067135;28;20116;-48
2023/12/20 16:20:57;;;;;;;53.05;27.73;;;3.90;99.90;;;;;;5066811;28;20375;-50
2023/12/20 16:23:23;;;;;;;52.40;29.10;;;3.90;99.90;;;;;;5066210;28;20903;-48
2023/12/20 16:25:49;;;;;;;50.03;28.70;;;3.80;99.90;;;;;;5068339;28;20042;-46
2023/12/20 16:28:14;;;;;;;47.78;25.20;;;3.80;99.90;;;;;;5068505;28;20020;-46
2023/12/20 16:30:40;;;;;;;48.83;24.77;;;3.70;99.90;;;;;;5066431;28;20494;-48
2023/12/20 16:33:06;;;;;;;42.60;24.35;;;3.70;99.90;;;;;;5067515;28;20071;-46
2023/12/20 16:35:32;;;;;;;41.53;23.90;;;3.70;99.90;;;;;;5067455;28;20107;-52
2023/12/20 16:37:57;;;;;;;45.25;23.60;;;3.70;99.90;;;;;;5064243;28;20032;-50
2023/12/20 16:40:26;;;;;;;49.88;25.05;;;3.80;99.90;;;;;;5066267;28;20021;-53
2023/12/20 16:42:52;;;;;;;45.30;23.95;;;3.80;99.90;;;;;;5067141;28;20454;-56
2023/12/20 16:45:18;;;;;;;46.33;23.88;;;3.90;99.90;;;;;;5065057;28;20039;-53
2023/12/20 16:47:44;;;;;;;44.92;22.85;;;3.90;99.90;;;;;;5064645;28;20586;-47
2023/12/20 16:50:10;;;;;;;43.08;24.40;;;3.90;99.90;;;;;;5066333;28;20044;-48
2023/12/20 16:52:36;;;;;;;47.92;23.88;;;3.90;99.90;;;;;;5066336;28;20379;-49
2023/12/20 16:55:04;;;;;;;55.35;27.02;;;3.90;99.90;;;;;;5065732;28;20086;-47
2023/12/20 16:57:30;;;;;;;50.45;25.25;;;4.00;99.90;;;;;;5066689;28;20094;-50
2023/12/20 16:59:56;;;;;;;51.15;23.70;;;3.90;99.90;;;;;;5065942;28;20073;-47
2023/12/20 17:02:21;;;;;;;44.08;23.77;;;4.00;99.90;;;;;;5067474;28;20031;-50
2023/12/20 17:04:48;;;;;;;45.10;21.52;;;4.00;99.90;;;;;;5067380;28;20020;-52
2023/12/20 17:07:14;;;;;;;43.53;21.67;;;4.10;99.90;;;;;;5066870;28;20085;-49
2023/12/20 17:09:40;;;;;;;45.70;20.77;;;4.10;99.90;;;;;;5066079;28;20044;-51
2023/12/20 17:12:07;;;;;;;41.53;20.15;;;4.10;99.90;;;;;;5065660;28;20863;-53
2023/12/20 17:14:34;;;;;;;36.15;18.98;;;4.20;99.90;;;;;;5066025;28;20758;-53
2023/12/20 17:16:59;;;;;;;34.42;17.85;;;4.20;99.90;;;;;;5063726;28;20036;-49
2023/12/20 17:19:25;;;;;;;32.85;16.80;;;4.20;99.90;;;;;;5065670;28;20024;-54
2023/12/20 17:21:51;;;;;;;29.67;14.98;;;4.20;99.90;;;;;;5066423;28;20026;-52
2023/12/20 17:24:17;;;;;;;31.90;14.82;;;4.30;99.90;;;;;;5066207;28;20025;-50
2023/12/20 17:26:43;;;;;;;30.88;16.00;;;4.30;99.90;;;;;;5066037;28;20506;-50
2023/12/20 17:29:08;;;;;;;34.75;16.73;;;4.30;99.90;;;;;;5066733;28;20056;-48
2023/12/20 17:31:35;;;;;;;31.50;14.63;;;4.30;99.90;;;;;;5065416;28;20028;-52
2023/12/20 17:34:01;;;;;;;22.35;11.60;;;4.30;99.90;;;;;;5065942;28;20053;-51
2023/12/20 17:36:26;;;;;;;32.78;14.75;;;4.30;99.90;;;;;;5064762;28;20177;-48
2023/12/20 17:38:52;;;;;;;24.25;12.02;;;4.30;99.90;;;;;;5066127;28;20025;-49
2023/12/20 17:41:17;;;;;;;22.23;11.23;;;4.30;99.90;;;;;;5066296;28;20780;-52
2023/12/20 17:43:43;;;;;;;25.85;11.50;;;4.30;99.90;;;;;;5065318;28;20017;-53
2023/12/20 17:46:09;;;;;;;23.27;11.75;;;4.30;99.90;;;;;;5065634;28;20036;-56
2023/12/20 17:48:34;;;;;;;19.45;9.68;;;4.30;1.00;;;;;;5064792;28;20062;-52
2023/12/20 17:51:00;;;;;;;20.10;9.57;;;4.30;99.90;;;;;;5066042;28;20024;-52
2023/12/20 17:53:26;;;;;;;18.73;9.82;;;4.40;1.00;;;;;;5065569;28;20020;-58
2023/12/20 17:55:51;;;;;;;21.98;9.70;;;4.40;1.00;;;;;;5064824;28;20626;-54
2023/12/20 17:58:17;;;;;;;21.15;10.80;;;4.40;41.40;;;;;;5066661;28;20555;-51
2023/12/20 18:00:42;;;;;;;43.67;15.43;;;4.50;1.00;;;;;;5067650;28;20034;-53
2023/12/20 18:03:10;;;;;;;43.55;15.27;;;4.50;27.60;;;;;;5065402;28;20096;-53
2023/12/20 18:05:35;;;;;;;;;;;4.50;99.90;;;;;;5065735;28;20475;-53
2023/12/20 18:08:01;;;;;;;39.55;14.35;;;4.50;1.00;;;;;;5065066;28;19905;-54
2023/12/20 18:10:26;;;;;;;25.58;11.45;;;4.50;1.00;;;;;;5064605;28;20024;-55
2023/12/20 18:12:52;;;;;;;20.20;9.25;;;4.60;1.00;;;;;;5064973;28;20388;-48
2023/12/20 18:15:18;;;;;;;20.88;9.75;;;4.50;1.00;;;;;;5065568;28;20557;-50
2023/12/20 18:17:43;;;;;;;25.23;11.98;;;4.50;1.00;;;;;;5065488;28;20020;-50
2023/12/20 18:20:10;;;;;;;22.88;10.45;;;4.50;1.00;;;;;;5062265;28;20533;-54
2023/12/20 18:22:35;;;;;;;28.23;11.18;;;4.40;1.00;;;;;;5065232;28;20536;-49
2023/12/20 18:25:02;;;;;;;28.23;11.40;;;4.40;20.70;;;;;;5065211;28;20016;-46
2023/12/20 18:27:27;;;;;;;32.55;14.10;;;4.40;92.90;;;;;;5063294;28;20517;-46
2023/12/20 18:29:54;;;;;;;24.52;12.00;;;4.40;99.90;;;;;;5063698;28;20032;-49
2023/12/20 18:32:19;;;;;;;30.15;11.57;;;4.40;1.00;;;;;;5064284;28;20032;-50
2023/12/20 18:34:46;;;;;;;21.42;10.63;;;4.50;99.90;;;;;;5064997;28;20024;-52
2023/12/20 18:37:12;;;;;;;34.90;13.55;;;4.50;99.90;;;;;;5061788;28;20052;-54
2023/12/20 18:39:38;;;;;;;27.70;10.90;;;4.50;80.60;;;;;;5057306;28;20020;-46
2023/12/20 18:42:05;;;;;;;23.05;10.82;;;4.60;99.90;;;;;;5061535;28;20025;-56
2023/12/20 18:44:31;;;;;;;23.85;11.77;;;4.50;1.00;;;;;;5058783;28;20086;-51
2023/12/20 18:46:57;;;;;;;21.17;10.50;;;4.50;45.50;;;;;;5062482;28;20045;-50
2023/12/20 18:49:23;;;;;;;21.23;10.90;;;4.40;99.90;;;;;;5061608;28;20039;-51
2023/12/20 18:51:48;;;;;;;19.45;9.82;;;4.40;1.00;;;;;;5061425;28;20033;-53
2023/12/20 18:54:14;;;;;;;22.80;9.73;;;4.50;99.90;;;;;;5061171;28;20025;-56
2023/12/20 18:56:42;;;;;;;23.60;11.13;;;4.40;1.00;;;;;;5062290;28;20408;-55
2023/12/20 18:59:08;;;;;;;18.27;9.65;;;4.40;99.90;;;;;;5061137;28;20591;-54
2023/12/20 19:01:33;;;;;;;24.40;10.88;;;4.40;99.90;;;;;;5062706;28;20062;-47
2023/12/20 19:03:59;;;;;;;23.13;11.05;;;4.40;99.90;;;;;;5061384;28;20368;-52
2023/12/20 19:06:25;;;;;;;20.23;9.52;;;4.40;99.90;;;;;;5061807;28;20039;-45
2023/12/20 19:08:51;;;;;;;23.75;11.25;;;4.30;51.90;;;;;;5062335;28;20032;-52
2023/12/20 19:11:18;;;;;;;20.48;9.60;;;4.30;99.90;;;;;;5062725;28;20032;-51
2023/12/20 19:13:43;;;;;;;24.63;10.20;;;4.30;38.60;;;;;;5062571;28;20041;-53
2023/12/20 19:16:09;;;;;;;21.05;9.48;;;4.30;92.20;;;;;;5060886;28;20169;-48
2023/12/20 19:18:35;;;;;;;24.55;9.80;;;4.30;1.00;;;;;;5062216;28;20078;-51
2023/12/20 19:21:00;;;;;;;24.67;11.00;;;4.30;30.70;;;;;;5062930;28;20028;-55
2023/12/20 19:23:27;;;;;;;24.10;10.45;;;4.30;18.50;;;;;;5062780;28;20035;-54
2023/12/20 19:25:53;;;;;;;29.02;11.25;;;4.30;24.90;;;;;;5059268;28;20496;-48
2023/12/20 19:28:20;;;;;;;22.63;10.50;;;4.30;1.00;;;;;;5062119;28;20890;-49
2023/12/20 19:30:45;;;;;;;24.67;12.45;;;4.30;1.00;;;;;;5062294;28;20028;-55
2023/12/20 19:33:11;;;;;;;29.30;12.00;;;4.30;27.80;;;;;;5063442;28;20031;-51
2023/12/20 19:35:37;;;;;;;21.90;10.70;;;4.30;5.40;;;;;;5062165;28;20517;-49
2023/12/20 19:38:03;;;;;;;21.40;11.05;;;4.20;1.00;;;;;;5061909;28;20486;-54
2023/12/20 19:40:29;;;;;;;22.40;11.38;;;4.20;92.50;;;;;;5062644;28;21275;-51
2023/12/20 19:42:55;;;;;;;22.60;11.05;;;4.10;99.90;;;;;;5062497;28;20753;-53
2023/12/20 19:45:21;;;;;;;25.58;11.82;;;4.00;99.90;;;;;;5065419;28;20028;-53
2023/12/20 19:47:50;;;;;;;22.45;11.95;;;4.10;99.90;;;;;;5065683;28;20039;-55
2023/12/20 19:50:16;;;;;;;25.75;11.68;;;4.00;99.90;;;;;;5065499;28;20028;-51
2023/12/20 19:52:42;;;;;;;25.08;10.88;;;4.00;99.90;;;;;;5062518;28;20025;-56
2023/12/20 19:55:08;;;;;;;23.90;11.30;;;4.00;99.90;;;;;;5047311;28;20087;-57
2023/12/20 19:57:34;;;;;;;25.60;11.00;;;4.00;99.90;;;;;;5063663;28;20079;-51
2023/12/20 20:00:00;;;;;;;28.30;11.85;;;4.00;99.90;;;;;;5064915;28;20107;-49
2023/12/20 20:02:25;;;;;;;25.50;9.43;;;4.10;21.00;;;;;;5065436;28;20024;-54
2023/12/20 20:04:51;;;;;;;22.45;10.38;;;4.10;1.00;;;;;;5064772;28;20028;-56
2023/12/20 20:07:19;;;;;;;18.95;9.40;;;4.10;1.00;;;;;;5064811;28;20024;-55
2023/12/20 20:09:46;;;;;;;28.92;11.90;;;4.10;1.00;;;;;;5064610;28;20028;-50
2023/12/20 20:12:11;;;;;;;31.77;12.05;;;4.10;99.90;;;;;;5063268;28;20031;-50
2023/12/20 20:14:37;;;;;;;31.02;10.90;;;4.10;99.90;;;;;;5068513;28;20040;-49
2023/12/20 20:17:03;;;;;;;36.97;12.65;;;4.10;99.90;;;;;;5064529;28;20151;-52
2023/12/20 20:19:29;;;;;;;29.00;10.25;;;4.10;99.90;;;;;;5062598;28;20025;-51
2023/12/20 20:21:55;;;;;;;22.45;8.82;;;4.10;99.90;;;;;;5063379;28;20032;-49
2023/12/20 20:24:21;;;;;;;20.75;8.63;;;4.10;99.90;;;;;;5063982;28;20106;-49
2023/12/20 20:26:48;;;;;;;25.10;9.65;;;4.10;99.90;;;;;;5064352;28;20021;-52
2023/12/20 20:29:14;;;;;;;;;;;4.00;99.90;;;;;;5061601;28;20036;-50
2023/12/20 20:31:39;;;;;;;21.98;9.93;;;3.90;1.00;;;;;;5063939;28;19912;-52
2023/12/20 20:34:05;;;;;;;23.65;11.02;;;3.80;1.00;;;;;;5063991;28;20115;-51
2023/12/20 20:36:30;;;;;;;28.40;12.43;;;3.80;1.00;;;;;;5062951;28;20768;-51
2023/12/20 20:38:56;;;;;;;25.95;11.35;;;3.80;1.00;;;;;;5064371;28;20032;-52
2023/12/20 20:41:22;;;;;;;28.25;11.15;;;3.80;1.00;;;;;;5064397;28;20067;-53
2023/12/20 20:43:48;;;;;;;26.73;11.20;;;3.80;1.00;;;;;;5064093;28;20029;-53
2023/12/20 20:46:14;;;;;;;24.40;10.63;;;3.80;1.00;;;;;;5063562;28;20276;-51
2023/12/20 20:48:40;;;;;;;26.17;10.48;;;3.80;1.00;;;;;;5064139;28;20630;-55
2023/12/20 20:51:05;;;;;;;23.15;9.88;;;3.90;1.00;;;;;;5063881;28;20029;-53
2023/12/20 20:53:31;;;;;;;21.77;9.13;;;3.90;1.00;;;;;;5063563;28;20023;-54
2023/12/20 20:55:58;;;;;;;20.45;9.02;;;3.90;1.00;;;;;;5062200;28;20823;-51
2023/12/20 20:58:24;;;;;;;22.98;9.48;;;3.90;99.90;;;;;;5062552;28;20077;-52
2023/12/20 21:00:50;;;;;;;23.13;9.50;;;3.90;99.90;;;;;;5061861;28;20041;-49
2023/12/20 21:03:16;;;;;;;20.02;8.30;;;3.90;1.00;;;;;;5064470;28;20331;-56
2023/12/20 21:05:42;;;;;;;18.67;8.57;;;4.00;99.90;;;;;;5064565;28;20371;-51
2023/12/20 21:08:08;;;;;;;19.10;8.10;;;4.10;99.90;;;;;;5064588;28;20029;-51
2023/12/20 21:10:34;;;;;;;18.35;8.80;;;4.10;99.90;;;;;;5064705;28;20690;-56
2023/12/20 21:13:00;;;;;;;20.60;9.50;;;4.00;1.00;;;;;;5064902;28;20388;-51
2023/12/20 21:15:26;;;;;;;18.35;9.50;;;4.00;99.90;;;;;;5064485;28;20274;-53
2023/12/20 21:17:51;;;;;;;20.40;8.85;;;4.10;99.90;;;;;;5063666;28;20085;-51
2023/12/20 21:20:17;;;;;;;21.63;8.95;;;4.10;99.90;;;;;;5063997;28;20032;-49
2023/12/20 21:22:43;;;;;;;20.00;9.60;;;4.10;99.90;;;;;;5063427;28;20054;-52
2023/12/20 21:25:09;;;;;;;19.85;8.23;;;4.10;99.90;;;;;;5063880;28;20082;-49
2023/12/20 21:27:35;;;;;;;18.80;7.43;;;4.10;99.90;;;;;;5064444;28;20024;-52
2023/12/20 21:30:01;;;;;;;19.30;6.43;;;4.20;99.90;;;;;;5064913;28;20383;-56
2023/12/20 21:32:27;;;;;;;14.00;6.53;;;4.20;99.90;;;;;;5064175;28;20044;-46
2023/12/20 21:34:52;;;;;;;14.38;6.68;;;4.20;99.90;;;;;;5064423;28;20082;-54
2023/12/20 21:37:18;;;;;;;11.70;6.30;;;4.30;99.90;;;;;;5064267;28;20549;-51
2023/12/20 21:39:44;;;;;;;12.60;6.15;;;4.20;99.90;;;;;;5063043;28;20032;-48
2023/12/20 21:42:10;;;;;;;13.02;6.03;;;4.30;99.90;;;;;;5061793;28;20029;-50
2023/12/20 21:44:36;;;;;;;13.50;6.38;;;4.30;99.90;;;;;;5063607;28;20078;-49
2023/12/20 21:47:02;;;;;;;14.05;5.75;;;4.30;99.90;;;;;;5063512;28;20792;-54
2023/12/20 21:49:27;;;;;;;14.15;6.53;;;4.30;99.90;;;;;;5062820;28;20387;-53
2023/12/20 21:51:53;;;;;;;15.13;6.47;;;4.30;99.90;;;;;;5062730;28;20434;-49
2023/12/20 21:54:19;;;;;;;14.35;5.68;;;4.30;99.90;;;;;;5063435;28;20074;-58
2023/12/20 21:56:45;;;;;;;13.73;5.97;;;4.40;99.90;;;;;;5062620;28;20928;-53
2023/12/20 21:59:11;;;;;;;13.05;5.65;;;4.40;99.90;;;;;;5061833;28;20271;-55
2023/12/20 22:01:41;;;;;;;12.23;5.10;;;4.40;99.90;;;;;;5063092;28;20023;-49
2023/12/20 22:04:07;;;;;;;12.10;6.05;;;4.40;99.90;;;;;;5062674;28;20028;-51
2023/12/20 22:06:33;;;;;;;14.63;5.50;;;4.40;99.90;;;;;;5062007;28;20135;-52
2023/12/20 22:08:59;;;;;;;12.23;6.15;;;4.40;99.90;;;;;;5063232;28;20028;-53
2023/12/20 22:11:25;;;;;;;13.80;7.22;;;4.40;99.90;;;;;;5061992;28;20040;-51
2023/12/20 22:13:50;;;;;;;14.82;6.25;;;4.40;99.90;;;;;;5060119;28;20045;-47
2023/12/20 22:16:16;;;;;;;13.65;5.63;;;4.40;99.90;;;;;;5061919;28;20043;-51
2023/12/20 22:18:43;;;;;;;14.95;5.60;;;4.40;99.90;;;;;;5062392;28;20443;-51
2023/12/20 22:21:10;;;;;;;11.57;5.72;;;4.40;99.90;;;;;;5062855;28;20028;-53
2023/12/20 22:23:36;;;;;;;15.60;6.45;;;4.40;99.90;;;;;;5062081;28;20043;-50
2023/12/20 22:26:04;;;;;;;14.75;6.22;;;4.40;99.90;;;;;;5062151;28;20491;-58
2023/12/20 22:28:30;;;;;;;16.67;5.72;;;4.40;99.90;;;;;;5062247;28;20032;-57
2023/12/20 22:30:55;;;;;;;17.38;6.07;;;4.40;99.90;;;;;;5062648;28;20044;-46
2023/12/20 22:33:21;;;;;;;12.48;5.72;;;4.40;99.90;;;;;;5061559;28;20025;-49
2023/12/20 22:35:47;;;;;;;12.48;5.45;;;4.30;99.90;;;;;;5061975;28;20504;-53
2023/12/20 22:38:12;;;;;;;13.40;6.18;;;4.30;99.90;;;;;;5060403;28;20510;-52
2023/12/20 22:40:38;;;;;;;16.00;6.47;;;4.30;99.90;;;;;;5061750;28;20111;-50
2023/12/20 22:43:03;;;;;;;18.50;6.43;;;4.30;99.90;;;;;;5061868;28;20159;-51
2023/12/20 22:45:31;;;;;;;15.68;6.55;;;4.30;99.90;;;;;;5062112;28;20020;-50
2023/12/20 22:47:57;;;;;;;13.02;6.20;;;4.30;99.90;;;;;;5060624;28;20048;-47
2023/12/20 22:50:23;;;;;;;15.93;7.10;;;4.20;99.90;;;;;;5062930;28;20024;-54
2023/12/20 22:52:49;;;;;;;15.13;6.10;;;4.20;99.90;;;;;;5062071;28;20028;-51
2023/12/20 22:55:14;;;;;;;17.80;7.63;;;4.20;99.90;;;;;;5061710;28;20031;-52
2023/12/20 22:57:40;;;;;;;18.48;7.82;;;4.20;1.00;;;;;;5059340;28;20483;-48
2023/12/20 23:00:09;;;;;;;18.35;7.32;;;4.20;99.90;;;;;;5060287;28;20049;-50
2023/12/20 23:02:34;;;;;;;18.65;7.75;;;4.20;1.00;;;;;;5060020;28;20509;-46
2023/12/20 23:05:00;;;;;;;20.90;8.77;;;4.20;1.00;;;;;;5060432;28;20037;-57
2023/12/20 23:07:26;;;;;;;19.75;9.02;;;4.20;1.00;;;;;;5060301;28;20098;-51
2023/12/20 23:09:52;;;;;;;25.08;10.68;;;4.10;1.00;;;;;;5058749;28;20032;-54
2023/12/20 23:12:17;;;;;;;28.33;11.85;;;4.10;1.00;;;;;;5060716;28;20365;-47
2023/12/20 23:14:43;;;;;;;24.20;11.02;;;4.10;34.30;;;;;;5061478;28;20047;-48
2023/12/20 23:17:09;;;;;;;23.45;10.45;;;4.10;13.50;;;;;;5061248;28;20043;-48
2023/12/20 23:19:34;;;;;;;18.45;8.60;;;4.00;48.40;;;;;;5064658;28;20575;-55
2023/12/20 23:22:00;;;;;;;21.95;9.10;;;4.00;99.90;;;;;;5065025;28;20331;-51
2023/12/20 23:24:26;;;;;;;18.65;9.18;;;4.10;99.90;;;;;;5065547;28;20383;-53
2023/12/20 23:26:51;;;;;;;27.48;8.82;;;4.00;99.90;;;;;;5065036;28;20020;-55
2023/12/20 23:29:17;;;;;;;24.67;9.93;;;4.00;99.90;;;;;;5065458;28;20431;-55
2023/12/20 23:31:43;;;;;;;28.05;12.23;;;4.10;99.90;;;;;;5065813;28;20127;-49
2023/12/20 23:34:08;;;;;;;27.98;9.73;;;4.10;99.90;;;;;;5066156;28;20025;-52
2023/12/20 23:36:34;;;;;;;23.65;9.60;;;4.10;99.90;;;;;;5066354;28;20046;-47
2023/12/20 23:39:00;;;;;;;17.52;8.10;;;4.10;99.90;;;;;;5066592;28;20856;-50
2023/12/20 23:41:27;;;;;;;19.98;8.30;;;4.10;99.90;;;;;;5065810;28;20531;-56
2023/12/20 23:43:53;;;;;;;17.75;8.50;;;4.10;99.90;;;;;;5065466;28;20032;-47
2023/12/20 23:46:19;;;;;;;23.75;8.85;;;4.10;99.90;;;;;;5066255;28;20053;-53
2023/12/20 23:48:44;;;;;;;15.43;8.10;;;4.10;99.90;;;;;;5065794;28;20043;-49
2023/12/20 23:51:10;;;;;;;20.48;8.85;;;4.10;99.90;;;;;;5065409;28;20056;-56
2023/12/20 23:53:35;;;;;;;18.38;7.72;;;4.10;99.90;;;;;;5064478;28;20115;-53
2023/12/20 23:56:01;;;;;;;16.35;7.63;;;4.10;99.90;;;;;;5063065;28;20532;-50
